Time;durP1;ratioP1;P1;durP2;ratioP2;P2;SDS_P1;SDS_P2;PMS_P1;PMS_P2;Temp;Humidity;BMP_temperature;BMP_pressure;BME280_temperature;BME280_humidity;BME280_pressure;Samples;Min_cycle;Max_cycle;Signal;HPM_P1;HPM_P2
2023/06/12 00:02:06;;;;;;;1999.90;999.90;;;20.60;82.50;;;;;;5055347;28;20388;-68
2023/06/12 00:04:33;;;;;;;1999.90;999.90;;;20.50;82.70;;;;;;5054474;28;20044;-68
2023/06/12 00:06:59;;;;;;;1999.90;999.90;;;20.50;83.00;;;;;;5054554;28;20044;-68
2023/06/12 00:09:25;;;;;;;1999.90;999.90;;;20.40;83.10;;;;;;5054358;28;20409;-68
2023/06/12 00:11:51;;;;;;;1999.90;999.90;;;20.40;83.30;;;;;;5054273;28;20041;-68
2023/06/12 00:14:17;;;;;;;1999.90;999.90;;;20.30;83.40;;;;;;5053156;28;20056;-68
2023/06/12 00:16:43;;;;;;;1999.90;999.90;;;20.30;83.70;;;;;;5054231;28;20049;-67
2023/06/12 00:19:09;;;;;;;1999.90;999.90;;;20.30;83.90;;;;;;5053584;28;20071;-68
2023/06/12 00:21:35;;;;;;;1999.90;999.90;;;20.20;84.20;;;;;;5053835;28;20493;-67
2023/06/12 00:24:01;;;;;;;1999.90;999.90;;;20.20;84.60;;;;;;5054151;28;20045;-68
2023/06/12 00:26:27;;;;;;;1999.90;999.90;;;20.20;84.80;;;;;;5053757;28;20039;-68
2023/06/12 00:28:53;;;;;;;1999.90;999.90;;;20.10;84.90;;;;;;5054062;28;20130;-67
2023/06/12 00:31:19;;;;;;;1999.90;999.90;;;20.10;85.10;;;;;;5054055;28;20099;-67
2023/06/12 00:33:45;;;;;;;1999.90;999.90;;;20.00;85.30;;;;;;5053958;28;20092;-67
2023/06/12 00:36:12;;;;;;;1999.90;999.90;;;20.00;85.60;;;;;;5054353;28;20088;-68
2023/06/12 00:38:38;;;;;;;1999.90;999.90;;;20.00;85.80;;;;;;5054647;28;20075;-67
2023/06/12 00:41:04;;;;;;;1999.90;999.90;;;20.00;86.00;;;;;;5054340;28;20139;-67
2023/06/12 00:43:29;;;;;;;1999.90;999.90;;;19.90;86.30;;;;;;5053451;28;20473;-68
2023/06/12 00:45:55;;;;;;;1999.90;999.90;;;19.90;86.50;;;;;;5053824;28;20048;-67
2023/06/12 00:48:21;;;;;;;1999.90;999.90;;;19.90;87.30;;;;;;5052994;28;20096;-67
2023/06/12 00:50:47;;;;;;;1999.90;999.90;;;19.80;86.90;;;;;;5053397;28;20106;-67
2023/06/12 00:53:13;;;;;;;1999.90;999.90;;;19.80;87.30;;;;;;5053956;28;20132;-67
2023/06/12 00:55:39;;;;;;;1999.90;999.90;;;19.80;87.70;;;;;;5053503;28;20548;-67
2023/06/12 00:58:05;;;;;;;1999.90;999.90;;;19.70;88.00;;;;;;5053969;28;20385;-67
2023/06/12 01:00:30;;;;;;;1999.90;999.90;;;19.70;88.20;;;;;;5053647;28;20049;-66
2023/06/12 01:03:04;;;;;;;1999.90;999.90;;;19.70;88.50;;;;;;5053517;28;20084;-68
2023/06/12 01:05:35;;;;;;;1999.90;999.90;;;19.70;88.80;;;;;;5053547;28;20088;-68
2023/06/12 01:08:20;;;;;;;1999.90;999.90;;;19.60;89.00;;;;;;5054433;28;20095;-68
2023/06/12 01:10:59;;;;;;;1999.90;999.90;;;19.60;89.40;;;;;;5053504;28;20045;-67
2023/06/12 01:13:26;;;;;;;1999.90;999.90;;;19.60;89.70;;;;;;5053711;28;20053;-67
2023/06/12 01:15:52;;;;;;;1999.90;999.90;;;19.50;90.00;;;;;;5053189;28;20438;-68
2023/06/12 01:18:20;;;;;;;1999.90;999.90;;;19.50;90.10;;;;;;5053092;28;20060;-68
2023/06/12 01:20:53;;;;;;;1999.90;999.90;;;19.50;90.20;;;;;;5053577;28;20053;-68
2023/06/12 01:23:36;;;;;;;1999.90;999.90;;;19.40;90.60;;;;;;5053375;28;20045;-67
2023/06/12 01:26:37;;;;;;;1999.90;999.90;;;19.40;90.80;;;;;;5052407;28;20064;-71
2023/06/12 01:29:35;;;;;;;1999.90;999.90;;;19.40;90.60;;;;;;5053302;28;20053;-71
2023/06/12 01:32:01;;;;;;;1999.90;999.90;;;19.30;90.80;;;;;;5031228;28;20357;-71
2023/06/12 01:34:38;;;;;;;1999.90;999.90;;;19.30;90.90;;;;;;5053268;28;20114;-71
2023/06/12 01:37:43;;;;;;;1999.90;999.90;;;19.30;91.00;;;;;;5052459;28;20044;-71
2023/06/12 01:40:12;;;;;;;1999.90;999.90;;;19.30;91.20;;;;;;5052845;28;20049;-71
2023/06/12 01:42:38;;;;;;;1999.90;999.90;;;19.20;91.30;;;;;;5051587;28;20057;-71
2023/06/12 01:45:05;;;;;;;1999.90;999.90;;;19.20;91.50;;;;;;5035226;28;20140;-71
2023/06/12 01:47:31;;;;;;;1999.90;999.90;;;19.10;91.60;;;;;;5051878;28;20045;-71
2023/06/12 01:49:57;;;;;;;1999.90;999.90;;;19.10;91.80;;;;;;5053054;28;20384;-71
2023/06/12 01:52:23;;;;;;;1999.90;999.90;;;19.00;91.90;;;;;;5053026;28;20053;-71
2023/06/12 01:54:48;;;;;;;1999.90;999.90;;;19.10;92.10;;;;;;5053546;28;20040;-71
2023/06/12 01:57:19;;;;;;;1999.90;999.90;;;19.00;92.30;;;;;;5052714;28;20056;-72
2023/06/12 01:59:45;;;;;;;1999.90;999.90;;;18.90;92.60;;;;;;5053144;28;20049;-71
2023/06/12 02:02:15;;;;;;;1999.90;999.90;;;18.90;92.80;;;;;;5052998;28;20053;-71
2023/06/12 02:04:41;;;;;;;1999.90;999.90;;;18.90;93.10;;;;;;5052806;28;20150;-69
2023/06/12 02:07:07;;;;;;;1999.90;999.90;;;18.80;93.30;;;;;;5052883;28;20049;-70
2023/06/12 02:09:33;;;;;;;1999.90;999.90;;;18.80;93.50;;;;;;5054656;28;20040;-71
2023/06/12 02:12:00;;;;;;;1999.90;999.90;;;18.80;93.70;;;;;;5055567;28;20048;-70
2023/06/12 02:14:29;;;;;;;1999.90;999.90;;;18.70;94.00;;;;;;5056069;28;20060;-70
2023/06/12 02:16:55;;;;;;;1999.90;999.90;;;18.70;94.10;;;;;;5057279;28;20349;-70
2023/06/12 02:19:28;;;;;;;1999.90;999.90;;;18.60;94.70;;;;;;5039081;28;20051;-70
2023/06/12 02:21:57;;;;;;;1999.90;999.90;;;18.60;94.50;;;;;;5056300;28;20052;-70
2023/06/12 02:24:29;;;;;;;1999.90;999.90;;;18.60;94.90;;;;;;5056402;28;20087;-70
2023/06/12 02:26:54;;;;;;;1999.90;999.90;;;18.50;95.00;;;;;;5057072;28;20441;-70
2023/06/12 02:29:20;;;;;;;1999.90;999.90;;;18.50;95.30;;;;;;5056313;28;20084;-70
2023/06/12 02:31:46;;;;;;;1999.90;999.90;;;18.50;95.60;;;;;;5056825;28;20080;-71
2023/06/12 02:34:12;;;;;;;1999.90;999.90;;;18.50;95.70;;;;;;5056245;28;20428;-70
2023/06/12 02:36:39;;;;;;;1999.90;999.90;;;18.40;96.00;;;;;;5055833;28;20052;-71
2023/06/12 02:39:12;;;;;;;1999.90;999.90;;;18.40;96.20;;;;;;5055214;28;20079;-70
2023/06/12 02:41:40;;;;;;;1999.90;999.90;;;18.30;96.70;;;;;;5056005;28;20071;-71
2023/06/12 02:44:05;;;;;;;1999.90;999.90;;;18.30;96.60;;;;;;5056052;28;20060;-71
2023/06/12 02:46:31;;;;;;;1999.90;999.90;;;18.30;96.90;;;;;;5055332;28;20434;-70
2023/06/12 02:48:57;;;;;;;1999.90;999.90;;;18.30;97.10;;;;;;5038889;28;20424;-71
2023/06/12 02:51:23;;;;;;;1999.90;999.90;;;18.20;97.30;;;;;;5054975;28;20057;-71
2023/06/12 02:53:48;;;;;;;1999.90;999.90;;;18.20;97.70;;;;;;5056686;28;20040;-71
2023/06/12 02:56:15;;;;;;;1999.90;999.90;;;18.10;98.20;;;;;;5054765;28;20049;-71
2023/06/12 02:58:40;;;;;;;1999.90;999.90;;;18.10;98.60;;;;;;5055839;28;20425;-70
2023/06/12 03:01:07;;;;;;;1999.90;999.90;;;18.00;99.10;;;;;;5054772;28;20055;-71
2023/06/12 03:03:35;;;;;;;1999.90;999.90;;;17.90;99.50;;;;;;5055747;28;20045;-71
2023/06/12 03:06:01;;;;;;;1999.90;999.90;;;17.90;99.90;;;;;;5055477;28;20156;-70
2023/06/12 03:08:27;;;;;;;1999.90;999.90;;;17.80;99.90;;;;;;5055335;28;20489;-70
2023/06/12 03:10:53;;;;;;;1999.90;999.90;;;17.80;99.90;;;;;;5055570;28;20055;-70
2023/06/12 03:13:19;;;;;;;1999.90;999.90;;;17.70;99.90;;;;;;5037730;28;20393;-70
2023/06/12 03:15:45;;;;;;;1999.90;999.90;;;17.70;99.90;;;;;;5055430;28;20543;-70
2023/06/12 03:18:10;;;;;;;1999.90;999.90;;;17.70;99.90;;;;;;5054087;28;20087;-70
2023/06/12 03:20:36;;;;;;;1999.90;999.90;;;17.60;99.90;;;;;;5054833;28;20095;-70
2023/06/12 03:23:02;;;;;;;1999.90;999.90;;;17.60;99.90;;;;;;5055309;28;20037;-71
2023/06/12 03:25:28;;;;;;;1999.90;999.90;;;17.60;99.90;;;;;;5055227;28;20137;-70
2023/06/12 03:27:53;;;;;;;1999.90;999.90;;;17.60;99.90;;;;;;5037746;28;20447;-70
2023/06/12 03:30:19;;;;;;;1999.90;999.90;;;17.50;99.90;;;;;;5055210;28;20518;-70
2023/06/12 03:32:46;;;;;;;1999.90;999.90;;;17.50;99.90;;;;;;5054206;28;20135;-70
2023/06/12 03:35:12;;;;;;;1999.90;999.90;;;17.50;99.90;;;;;;5055085;28;20045;-70
2023/06/12 03:37:38;;;;;;;1999.90;999.90;;;17.40;99.90;;;;;;5054949;28;20033;-70
2023/06/12 03:40:05;;;;;;;1999.90;999.90;;;17.40;99.90;;;;;;5054982;28;20049;-70
2023/06/12 03:42:30;;;;;;;1999.90;999.90;;;17.30;99.90;;;;;;5053683;28;20057;-70
2023/06/12 03:44:56;;;;;;;1999.90;999.90;;;17.30;99.90;;;;;;5054935;28;20045;-70
2023/06/12 03:47:22;;;;;;;1999.90;999.90;;;17.30;99.90;;;;;;5053649;28;20107;-70
2023/06/12 03:49:47;;;;;;;1999.90;999.90;;;17.20;99.90;;;;;;5037273;28;20049;-70
2023/06/12 03:52:14;;;;;;;1999.90;999.90;;;17.20;99.90;;;;;;5053890;28;20469;-70
2023/06/12 03:54:39;;;;;;;1999.90;999.90;;;17.20;99.90;;;;;;5054710;28;20049;-71
2023/06/12 03:57:06;;;;;;;1999.90;999.90;;;17.10;99.90;;;;;;5036846;28;20056;-70
2023/06/12 03:59:33;;;;;;;1999.90;999.90;;;17.20;99.90;;;;;;5020783;28;20092;-70
2023/06/12 04:01:59;;;;;;;1999.90;999.90;;;17.20;99.90;;;;;;5055351;28;20072;-70
2023/06/12 04:04:25;;;;;;;1999.90;999.90;;;17.20;99.90;;;;;;5053799;28;20052;-70
2023/06/12 04:06:52;;;;;;;1999.90;999.90;;;17.20;99.90;;;;;;5054704;28;20423;-70
2023/06/12 04:09:18;;;;;;;1999.90;999.90;;;17.20;99.90;;;;;;5054256;28;20045;-70
2023/06/12 04:11:46;;;;;;;1999.90;999.90;;;17.20;99.90;;;;;;5054387;28;20199;-70
2023/06/12 04:14:12;;;;;;;1999.90;999.90;;;17.20;99.90;;;;;;5054929;28;20056;-70
2023/06/12 04:16:38;;;;;;;1999.90;999.90;;;17.10;99.90;;;;;;5053054;28;20041;-70
2023/06/12 04:19:05;;;;;;;1999.90;999.90;;;17.10;99.90;;;;;;5054252;28;20052;-70
2023/06/12 04:21:32;;;;;;;1999.90;999.90;;;17.10;99.90;;;;;;5054698;28;20057;-69
2023/06/12 04:24:03;;;;;;;1999.90;999.90;;;17.10;99.90;;;;;;5053849;28;20493;-70
2023/06/12 04:26:34;;;;;;;1999.90;999.90;;;17.10;99.90;;;;;;5054487;28;20047;-70
2023/06/12 04:29:02;;;;;;;1999.90;999.90;;;17.10;99.90;;;;;;5053375;28;20075;-70
2023/06/12 04:31:29;;;;;;;1999.90;999.90;;;17.10;99.90;;;;;;5053714;28;20457;-70
2023/06/12 04:33:54;;;;;;;1999.90;999.90;;;17.10;99.90;;;;;;5036624;28;20059;-69
2023/06/12 04:36:22;;;;;;;1999.90;999.90;;;17.10;99.90;;;;;;5053707;28;20044;-70
2023/06/12 04:38:51;;;;;;;1999.90;999.90;;;17.10;99.90;;;;;;5054475;28;20443;-70
2023/06/12 04:41:24;;;;;;;1999.90;999.90;;;17.10;99.90;;;;;;5052521;28;20064;-70
2023/06/12 04:43:51;;;;;;;1999.90;999.90;;;17.10;99.90;;;;;;5053102;28;20099;-70
2023/06/12 04:46:20;;;;;;;1999.90;999.90;;;17.10;99.90;;;;;;5053060;28;20392;-68
2023/06/12 04:48:46;;;;;;;1999.90;999.90;;;17.10;99.90;;;;;;5053793;28;20049;-70
2023/06/12 04:51:13;;;;;;;1999.90;999.90;;;17.10;99.90;;;;;;5052670;28;20460;-70
2023/06/12 04:53:40;;;;;;;1999.90;999.90;;;17.20;99.90;;;;;;5052883;28;20063;-70
2023/06/12 04:56:09;;;;;;;1999.90;999.90;;;17.20;99.90;;;;;;5053790;28;20053;-70
2023/06/12 04:58:40;;;;;;;1999.90;999.90;;;17.20;99.90;;;;;;5053756;28;20052;-70
2023/06/12 05:01:06;;;;;;;1999.90;999.90;;;17.20;99.90;;;;;;5053770;28;20057;-70
2023/06/12 05:03:33;;;;;;;1999.90;999.90;;;17.20;99.90;;;;;;5053203;28;20546;-70
2023/06/12 05:06:00;;;;;;;1999.90;999.90;;;17.20;99.90;;;;;;5053588;28;20048;-70
2023/06/12 05:08:25;;;;;;;1999.90;999.90;;;17.20;99.90;;;;;;5053220;28;20056;-70
2023/06/12 05:10:52;;;;;;;1999.90;999.90;;;17.20;99.90;;;;;;5053493;28;20037;-70
2023/06/12 05:13:19;;;;;;;1999.90;999.90;;;17.30;99.90;;;;;;5053182;28;20048;-70
2023/06/12 05:15:45;;;;;;;1999.90;999.90;;;17.30;99.90;;;;;;5052144;28;20088;-70
2023/06/12 05:18:11;;;;;;;1999.90;999.90;;;17.30;99.90;;;;;;5054102;28;20130;-70
2023/06/12 05:20:37;;;;;;;1999.90;999.90;;;17.30;99.90;;;;;;5053350;28;20057;-70
2023/06/12 05:23:02;;;;;;;1999.90;999.90;;;17.30;99.90;;;;;;5053322;28;20095;-70
2023/06/12 05:25:28;;;;;;;1999.90;999.90;;;17.40;99.90;;;;;;5035759;28;20045;-70
2023/06/12 05:27:54;;;;;;;1999.90;999.90;;;17.40;99.90;;;;;;5053380;28;20128;-70
2023/06/12 05:30:20;;;;;;;1999.90;999.90;;;17.40;99.90;;;;;;5052148;28;20084;-70
2023/06/12 05:32:46;;;;;;;1999.90;999.90;;;17.50;99.90;;;;;;5053343;28;20045;-70
2023/06/12 05:35:12;;;;;;;1999.90;999.90;;;17.50;99.90;;;;;;5052215;28;20106;-70
2023/06/12 05:37:37;;;;;;;1999.90;999.90;;;17.50;99.90;;;;;;5053138;28;20429;-71
2023/06/12 05:40:05;;;;;;;1999.90;999.90;;;17.60;99.90;;;;;;5053428;28;20045;-71
2023/06/12 05:42:31;;;;;;;1999.90;999.90;;;17.60;99.90;;;;;;5053280;28;20076;-71
2023/06/12 05:44:57;;;;;;;1999.90;999.90;;;17.60;99.90;;;;;;5056734;28;20045;-69
2023/06/12 05:47:23;;;;;;;1999.90;999.90;;;17.60;99.90;;;;;;5056386;28;20052;-70
2023/06/12 05:49:49;;;;;;;1999.90;999.90;;;17.70;99.90;;;;;;5055775;28;20049;-70
2023/06/12 05:52:15;;;;;;;1999.90;999.90;;;17.70;99.90;;;;;;5057799;28;20045;-70
2023/06/12 05:54:41;;;;;;;1999.90;999.90;;;17.70;99.90;;;;;;5056218;28;20052;-70
2023/06/12 05:57:07;;;;;;;1999.90;999.90;;;17.70;99.90;;;;;;5056493;28;20041;-70
2023/06/12 05:59:32;;;;;;;1999.90;999.90;;;17.70;99.90;;;;;;5039226;28;20175;-70
2023/06/12 06:01:58;;;;;;;1999.90;999.90;;;17.80;99.90;;;;;;5055605;28;20106;-70
2023/06/12 06:04:24;;;;;;;1999.90;999.90;;;17.80;99.90;;;;;;5055518;28;20131;-70
2023/06/12 06:06:52;;;;;;;1999.90;999.90;;;17.90;99.90;;;;;;5056727;28;20052;-70
2023/06/12 06:09:17;;;;;;;1999.90;999.90;;;17.90;99.90;;;;;;5055438;28;20085;-69
2023/06/12 06:11:43;;;;;;;1999.90;999.90;;;17.90;99.90;;;;;;5055621;28;20158;-69
2023/06/12 06:14:09;;;;;;;1999.90;999.90;;;18.00;99.90;;;;;;5055928;28;20115;-70
2023/06/12 06:16:35;;;;;;;1999.90;999.90;;;18.00;99.90;;;;;;5022139;28;20045;-70
2023/06/12 06:19:00;;;;;;;1999.90;999.90;;;18.10;99.90;;;;;;5022759;28;20048;-70
2023/06/12 06:21:26;;;;;;;1999.90;999.90;;;18.10;99.90;;;;;;5056699;28;20087;-70
2023/06/12 06:23:52;;;;;;;1999.90;999.90;;;18.20;99.90;;;;;;5056431;28;20049;-70
2023/06/12 06:26:17;;;;;;;1999.90;999.90;;;18.20;99.90;;;;;;5039577;28;20129;-69
2023/06/12 06:28:43;;;;;;;1999.90;999.90;;;18.20;99.90;;;;;;5056441;28;20436;-70
2023/06/12 06:31:09;;;;;;;1999.90;999.90;;;18.30;99.90;;;;;;5055204;28;20129;-70
2023/06/12 06:33:35;;;;;;;1999.90;999.90;;;18.30;99.90;;;;;;5038596;28;20053;-70
2023/06/12 06:36:02;;;;;;;1999.90;999.90;;;18.30;99.90;;;;;;5055481;28;20366;-69
2023/06/12 06:38:27;;;;;;;1999.90;999.90;;;18.30;99.90;;;;;;5056605;28;20135;-70
2023/06/12 06:40:53;;;;;;;1999.90;999.90;;;18.40;99.90;;;;;;5054909;28;20087;-70
2023/06/12 06:43:20;;;;;;;1999.90;999.90;;;18.50;99.90;;;;;;5055978;28;20135;-70
2023/06/12 06:45:45;;;;;;;1999.90;999.90;;;18.50;99.90;;;;;;5056797;28;20500;-70
2023/06/12 06:48:13;;;;;;;1999.90;999.90;;;18.60;99.90;;;;;;5056186;28;20469;-70
2023/06/12 06:50:42;;;;;;;1999.90;999.90;;;18.60;99.90;;;;;;5055867;28;20083;-70
2023/06/12 06:53:08;;;;;;;1999.90;999.90;;;18.60;99.90;;;;;;5055838;28;20131;-70
2023/06/12 06:55:34;;;;;;;1999.90;999.90;;;18.70;99.90;;;;;;5055271;28;20120;-70
2023/06/12 06:58:00;;;;;;;1999.90;999.90;;;18.70;99.90;;;;;;5055929;28;20041;-70
2023/06/12 07:00:27;;;;;;;1999.90;999.90;;;18.80;99.90;;;;;;5056213;28;20048;-71
2023/06/12 07:02:53;;;;;;;1999.90;999.90;;;18.90;99.90;;;;;;5038038;28;20401;-70
2023/06/12 07:05:20;;;;;;;1999.90;999.90;;;18.90;99.90;;;;;;5055634;28;20093;-69
2023/06/12 07:07:47;;;;;;;1999.90;999.90;;;19.00;99.90;;;;;;5055596;28;20045;-71
2023/06/12 07:10:13;;;;;;;1999.90;999.90;;;19.10;99.90;;;;;;5055553;28;20052;-70
2023/06/12 07:12:39;;;;;;;1999.90;999.90;;;19.10;99.90;;;;;;5055479;28;20045;-70
2023/06/12 07:15:05;;;;;;;1999.90;999.90;;;19.20;99.90;;;;;;5054295;28;20134;-71
2023/06/12 07:17:32;;;;;;;1999.90;999.90;;;19.20;99.90;;;;;;5055343;28;20048;-70
2023/06/12 07:19:57;;;;;;;1999.90;999.90;;;19.30;99.90;;;;;;5038428;28;20469;-70
2023/06/12 07:22:23;;;;;;;1999.90;999.90;;;19.40;99.90;;;;;;5055559;28;20044;-70
2023/06/12 07:24:49;;;;;;;1999.90;999.90;;;19.40;99.90;;;;;;5037912;28;20049;-70
2023/06/12 07:27:15;;;;;;;1999.90;999.90;;;19.50;99.90;;;;;;5055067;28;20493;-73
2023/06/12 07:29:40;;;;;;;1999.90;999.90;;;19.50;99.90;;;;;;5053993;28;20444;-69
2023/06/12 07:32:06;;;;;;;1999.90;999.90;;;19.60;99.90;;;;;;5053962;28;20527;-70
2023/06/12 07:34:32;;;;;;;1999.90;999.90;;;19.60;99.90;;;;;;5054211;28;20044;-69
2023/06/12 07:36:58;;;;;;;1999.90;999.90;;;19.70;99.90;;;;;;5053973;28;20072;-70
2023/06/12 07:39:24;;;;;;;1999.90;999.90;;;19.70;99.90;;;;;;5054083;28;20040;-69
2023/06/12 07:41:50;;;;;;;1999.90;999.90;;;19.80;99.90;;;;;;5053696;28;20059;-70
2023/06/12 07:44:16;;;;;;;1999.90;999.90;;;19.80;99.90;;;;;;5054920;28;20056;-69
2023/06/12 07:46:43;;;;;;;1999.90;999.90;;;19.80;99.90;;;;;;5054165;28;20045;-69
2023/06/12 07:49:09;;;;;;;1999.90;999.90;;;19.90;99.90;;;;;;5055314;28;20052;-70
2023/06/12 07:51:35;;;;;;;1999.90;999.90;;;19.90;99.90;;;;;;5054820;28;20049;-70
2023/06/12 07:54:01;;;;;;;1999.90;999.90;;;19.90;99.90;;;;;;5053624;28;20049;-70
2023/06/12 07:56:27;;;;;;;1999.90;999.90;;;20.00;99.90;;;;;;5054691;28;20052;-69
2023/06/12 07:58:52;;;;;;;1999.90;999.90;;;20.00;99.90;;;;;;5055146;28;20049;-69
2023/06/12 08:01:18;;;;;;;1999.90;999.90;;;20.10;99.90;;;;;;5054414;28;20071;-69
2023/06/12 08:03:45;;;;;;;1999.90;999.90;;;20.20;99.90;;;;;;5054544;28;20049;-71
2023/06/12 08:06:12;;;;;;;1999.90;999.90;;;20.20;99.90;;;;;;5052522;28;20044;-73
2023/06/12 08:08:42;;;;;;;1999.90;999.90;;;20.30;99.90;;;;;;5053948;28;20484;-69
2023/06/12 08:11:11;;;;;;;1999.90;999.90;;;20.40;99.90;;;;;;5054353;28;20053;-69
2023/06/12 08:13:37;;;;;;;1999.90;999.90;;;20.50;99.90;;;;;;5054345;28;20094;-69
2023/06/12 08:16:03;;;;;;;1999.90;999.90;;;20.60;99.90;;;;;;5053284;28;20047;-69
2023/06/12 08:18:29;;;;;;;1999.90;999.90;;;20.70;99.90;;;;;;5054445;28;20044;-69
2023/06/12 08:20:57;;;;;;;1999.90;999.90;;;20.70;99.90;;;;;;5036687;28;20132;-68
2023/06/12 08:23:23;;;;;;;1999.90;999.90;;;20.80;99.90;;;;;;5054003;28;20041;-70
2023/06/12 08:25:48;;;;;;;1999.90;999.90;;;20.90;99.90;;;;;;5054267;28;20043;-70
2023/06/12 08:28:14;;;;;;;1999.90;999.90;;;20.90;99.90;;;;;;5036859;28;20477;-69
2023/06/12 08:30:40;;;;;;;1999.90;999.90;;;21.00;99.90;;;;;;5052976;28;20124;-69
2023/06/12 08:33:07;;;;;;;1999.90;999.90;;;21.00;99.90;;;;;;5054138;28;20073;-69
2023/06/12 08:35:34;;;;;;;1999.90;999.90;;;21.10;99.90;;;;;;5053009;28;20052;-69
2023/06/12 08:38:00;;;;;;;1999.90;999.90;;;21.20;99.90;;;;;;5054025;28;20131;-69
2023/06/12 08:40:26;;;;;;;1999.90;999.90;;;21.20;99.90;;;;;;5053988;28;20135;-69
2023/06/12 08:42:52;;;;;;;1999.90;999.90;;;21.30;99.90;;;;;;5052382;28;20156;-69
2023/06/12 08:45:25;;;;;;;1999.90;999.90;;;21.30;99.90;;;;;;5054444;28;20171;-69
2023/06/12 08:47:52;;;;;;;1999.90;999.90;;;21.40;99.90;;;;;;5053964;28;20041;-68
2023/06/12 08:50:18;;;;;;;1999.90;999.90;;;21.50;99.90;;;;;;5053916;28;20049;-68
2023/06/12 08:52:49;;;;;;;1999.90;999.90;;;21.60;99.90;;;;;;5053797;28;20052;-69
2023/06/12 08:55:15;;;;;;;1999.90;999.90;;;21.60;99.90;;;;;;5054411;28;20041;-69
2023/06/12 08:57:42;;;;;;;1999.90;999.90;;;21.70;99.90;;;;;;5053963;28;20101;-69
2023/06/12 09:00:15;;;;;;;1999.90;999.90;;;21.70;99.90;;;;;;5053732;28;20048;-69
2023/06/12 09:02:47;;;;;;;1999.90;999.90;;;21.80;99.90;;;;;;5053542;28;20055;-69
2023/06/12 09:05:19;;;;;;;1999.90;999.90;;;21.90;99.90;;;;;;5053728;28;20045;-69
2023/06/12 09:07:46;;;;;;;;;;;22.00;99.90;;;;;;5052949;28;20279;-69
2023/06/12 09:10:12;;;;;;;1999.90;999.90;;;22.00;99.90;;;;;;5053568;28;20296;-70
2023/06/12 09:12:42;;;;;;;1999.90;999.90;;;22.10;99.90;;;;;;5054255;28;20049;-70
2023/06/12 09:15:08;;;;;;;1999.90;999.90;;;22.20;99.90;;;;;;5053911;28;20484;-69
2023/06/12 09:17:37;;;;;;;1999.90;999.90;;;22.20;99.90;;;;;;5053764;28;20041;-69
2023/06/12 09:20:05;;;;;;;1999.90;999.90;;;22.30;99.90;;;;;;5052198;28;20102;-70
2023/06/12 09:22:31;;;;;;;1999.90;999.90;;;22.40;99.90;;;;;;5053819;28;20041;-69
2023/06/12 09:24:57;;;;;;;1999.90;999.90;;;22.40;99.90;;;;;;5053536;28;20366;-69
2023/06/12 09:27:23;;;;;;;1999.90;999.90;;;22.60;99.90;;;;;;5053212;28;20033;-70
2023/06/12 09:29:48;;;;;;;1999.90;999.90;;;22.60;99.90;;;;;;5052690;28;20041;-70
2023/06/12 09:32:15;;;;;;;1999.90;999.90;;;22.70;99.90;;;;;;5052180;28;20135;-69
2023/06/12 09:34:48;;;;;;;1999.90;999.90;;;22.80;99.90;;;;;;5053299;28;20107;-72
2023/06/12 09:37:15;;;;;;;;;;;22.80;99.90;;;;;;5053862;28;20542;-70
2023/06/12 09:39:41;;;;;;;1999.90;999.90;;;22.90;99.90;;;;;;5052295;28;19975;-70
2023/06/12 09:42:07;;;;;;;1999.90;999.90;;;22.90;99.90;;;;;;5051049;28;20137;-70
2023/06/12 09:44:34;;;;;;;1999.90;999.90;;;23.00;99.90;;;;;;5052829;28;20489;-70
2023/06/12 09:47:02;;;;;;;1999.90;999.90;;;23.00;99.90;;;;;;5051913;28;20504;-70
2023/06/12 09:49:28;;;;;;;1999.90;999.90;;;23.10;99.90;;;;;;5052025;28;20428;-73
2023/06/12 09:51:54;;;;;;;1999.90;999.90;;;23.30;99.90;;;;;;5052868;28;20081;-70
2023/06/12 09:54:22;;;;;;;1999.90;999.90;;;23.40;99.90;;;;;;5053044;28;20048;-70
2023/06/12 09:56:51;;;;;;;1999.90;999.90;;;23.50;99.90;;;;;;5052894;28;20492;-69
2023/06/12 09:59:21;;;;;;;1999.90;999.90;;;23.60;99.90;;;;;;5053315;28;20053;-70
2023/06/12 10:01:51;;;;;;;1999.90;999.90;;;23.70;99.90;;;;;;5035160;28;20110;-71
2023/06/12 10:04:31;;;;;;;1999.90;999.90;;;23.80;99.90;;;;;;5052621;28;20053;-71
2023/06/12 10:07:05;;;;;;;1999.90;999.90;;;23.90;99.90;;;;;;5052743;28;20334;-71
2023/06/12 10:09:32;;;;;;;1999.90;999.90;;;24.00;99.90;;;;;;5053397;28;20045;-74
2023/06/12 10:11:59;;;;;;;1999.90;999.90;;;24.00;99.90;;;;;;5052568;28;20427;-72
2023/06/12 10:14:26;;;;;;;1999.90;999.90;;;24.10;99.90;;;;;;5051378;28;20040;-70
2023/06/12 10:16:56;;;;;;;1999.90;999.90;;;24.10;99.90;;;;;;5051544;28;20056;-70
2023/06/12 10:19:25;;;;;;;1999.90;999.90;;;24.20;99.90;;;;;;5052845;28;20049;-70
2023/06/12 10:21:55;;;;;;;1999.90;999.90;;;24.20;99.90;;;;;;5051759;28;20048;-70
2023/06/12 10:24:24;;;;;;;1999.90;999.90;;;24.30;99.90;;;;;;5052814;28;20041;-70
2023/06/12 10:26:53;;;;;;;1999.90;999.90;;;24.30;99.90;;;;;;5052780;28;20041;-71
2023/06/12 10:29:28;;;;;;;1999.90;999.90;;;24.30;99.90;;;;;;5019812;28;20057;-71
2023/06/12 10:32:01;;;;;;;1999.90;999.90;;;24.40;99.90;;;;;;5056391;28;20080;-70
2023/06/12 10:34:28;;;;;;;1999.90;999.90;;;24.40;99.90;;;;;;5055781;28;20057;-70
2023/06/12 10:36:53;;;;;;;1999.90;999.90;;;24.40;99.90;;;;;;5055268;28;20049;-70
2023/06/12 10:39:25;;;;;;;1999.90;999.90;;;24.40;99.90;;;;;;5056330;28;20048;-72
2023/06/12 10:41:58;;;;;;;1999.90;999.90;;;24.50;99.90;;;;;;5056062;28;20080;-71
2023/06/12 10:44:30;;;;;;;1999.90;999.90;;;24.50;99.90;;;;;;5057285;28;20067;-71
2023/06/12 10:46:56;;;;;;;1999.90;999.90;;;24.60;99.90;;;;;;5056466;28;20110;-71
2023/06/12 10:49:21;;;;;;;1999.90;999.90;;;24.70;99.90;;;;;;5059065;28;20124;-72
2023/06/12 10:51:48;;;;;;;1999.90;999.90;;;24.80;99.90;;;;;;5056216;28;20041;-73
2023/06/12 10:54:15;;;;;;;1999.90;999.90;;;24.80;99.90;;;;;;5056192;28;20049;-72
2023/06/12 10:56:59;;;;;;;1999.90;999.90;;;24.90;99.90;;;;;;5054896;28;20128;-72
2023/06/12 10:59:35;;;;;;;1999.90;999.90;;;25.00;99.90;;;;;;5056451;28;20080;-72
2023/06/12 11:02:04;;;;;;;1999.90;999.90;;;25.10;99.90;;;;;;5038817;28;20462;-74
2023/06/12 11:04:37;;;;;;;1999.90;999.90;;;25.20;99.90;;;;;;5038338;28;20516;-73
2023/06/12 11:07:04;;;;;;;1999.90;999.90;;;25.20;99.70;;;;;;5054621;28;20048;-72
2023/06/12 11:09:40;;;;;;;1999.90;999.90;;;25.20;99.50;;;;;;5054871;28;20049;-71
2023/06/12 11:12:09;;;;;;;1999.90;999.90;;;25.30;99.00;;;;;;5054954;28;20051;-74
2023/06/12 11:14:34;;;;;;;1999.90;999.90;;;25.30;98.60;;;;;;5055743;28;20041;-71
2023/06/12 11:17:00;;;;;;;1999.90;999.90;;;25.30;98.30;;;;;;5056219;28;20067;-71
2023/06/12 11:19:30;;;;;;;1999.90;999.90;;;25.40;97.70;;;;;;5055867;28;20094;-71
2023/06/12 11:21:56;;;;;;;1999.90;999.90;;;25.50;97.20;;;;;;5058108;28;20049;-71
2023/06/12 11:24:22;;;;;;;1999.90;999.90;;;25.50;96.80;;;;;;5058017;28;20052;-72
2023/06/12 11:26:51;;;;;;;1999.90;999.90;;;25.50;96.60;;;;;;5057687;28;20428;-71
2023/06/12 11:29:19;;;;;;;1999.90;999.90;;;25.60;96.10;;;;;;5039457;28;20428;-72
2023/06/12 11:32:04;;;;;;;1999.90;999.90;;;25.70;95.70;;;;;;5055667;28;20052;-71
2023/06/12 11:34:36;;;;;;;1999.90;999.90;;;25.70;96.00;;;;;;5055573;28;20052;-72
2023/06/12 11:37:14;;;;;;;1999.90;999.90;;;25.80;95.40;;;;;;5054532;28;20053;-71
2023/06/12 11:39:40;;;;;;;1999.90;999.90;;;25.80;94.90;;;;;;5054969;28;20048;-71
2023/06/12 11:42:07;;;;;;;1999.90;999.90;;;25.80;94.00;;;;;;5054814;28;20137;-72
2023/06/12 11:44:33;;;;;;;1999.90;999.90;;;25.90;93.50;;;;;;5054024;28;20447;-71
2023/06/12 11:47:00;;;;;;;1999.90;999.90;;;25.90;93.20;;;;;;5055322;28;20090;-71
2023/06/12 11:49:28;;;;;;;1999.90;999.90;;;26.00;92.90;;;;;;5054993;28;20116;-71
2023/06/12 11:51:55;;;;;;;1999.90;999.90;;;26.00;92.60;;;;;;5037993;28;20091;-73
2023/06/12 11:54:20;;;;;;;1999.90;999.90;;;26.10;92.70;;;;;;5055482;28;20102;-72
2023/06/12 11:56:47;;;;;;;1999.90;999.90;;;26.20;92.90;;;;;;5054772;28;20045;-72
2023/06/12 11:59:13;;;;;;;1999.90;999.90;;;26.30;93.00;;;;;;5053899;28;20053;-71
2023/06/12 12:01:41;;;;;;;1999.90;999.90;;;26.50;92.40;;;;;;5054515;28;20052;-72
2023/06/12 12:04:07;;;;;;;1999.90;999.90;;;26.50;91.70;;;;;;5054729;28;20060;-72